Time;durP1;ratioP1;P1;durP2;ratioP2;P2;SDS_P1;SDS_P2;PMS_P1;PMS_P2;Temp;Humidity;BMP_temperature;BMP_pressure;BME280_temperature;BME280_humidity;BME280_pressure;Samples;Min_cycle;Max_cycle;Signal;HPM_P1;HPM_P2
2021/04/28 00:00:54;;;;;;;9.07;6.87;;;8.80;51.90;;;;;;5015018;28;20452;-45
2021/04/28 00:03:20;;;;;;;6.20;5.60;;;8.60;51.90;;;;;;5032158;28;20433;-46
2021/04/28 00:05:47;;;;;;;6.47;5.27;;;8.60;51.80;;;;;;5032542;28;20445;-45
2021/04/28 00:08:13;;;;;;;7.30;6.30;;;8.60;51.70;;;;;;5032207;28;20562;-45
2021/04/28 00:10:41;;;;;;;6.43;5.60;;;8.50;51.70;;;;;;5032231;28;20467;-46
2021/04/28 00:13:09;;;;;;;8.47;6.27;;;8.60;51.70;;;;;;5031936;28;20443;-45
2021/04/28 00:15:39;;;;;;;8.93;6.80;;;8.30;51.40;;;;;;5032378;28;20441;-46
2021/04/28 00:18:05;;;;;;;7.90;6.00;;;8.30;51.40;;;;;;5032350;28;20549;-46
2021/04/28 00:20:37;;;;;;;7.87;6.53;;;8.50;51.60;;;;;;5032216;28;20819;-46
2021/04/28 00:23:04;;;;;;;6.33;5.50;;;8.80;51.80;;;;;;5014762;28;20451;-46
2021/04/28 00:25:30;;;;;;;6.60;5.50;;;8.20;51.40;;;;;;5032448;28;20524;-46
2021/04/28 00:27:56;;;;;;;7.77;6.23;;;8.60;51.70;;;;;;5032699;28;20461;-46
2021/04/28 00:30:23;;;;;;;9.30;6.20;;;8.30;51.50;;;;;;5032214;28;20910;-45
2021/04/28 00:32:50;;;;;;;10.97;5.63;;;8.30;51.50;;;;;;5032112;28;20588;-46
2021/04/28 00:35:17;;;;;;;9.63;5.17;;;8.40;51.50;;;;;;5032297;28;20441;-45
2021/04/28 00:37:44;;;;;;;9.20;6.27;;;8.60;51.70;;;;;;5032347;28;20438;-45
2021/04/28 00:40:14;;;;;;;8.30;6.47;;;8.20;51.40;;;;;;5031985;28;20524;-46
2021/04/28 00:42:42;;;;;;;6.20;5.60;;;8.30;51.60;;;;;;5031751;28;20436;-46
2021/04/28 00:45:09;;;;;;;7.90;6.13;;;8.20;51.60;;;;;;5031983;28;20441;-45
2021/04/28 00:47:36;;;;;;;6.83;6.07;;;8.20;51.40;;;;;;5031985;28;20441;-45
2021/04/28 00:50:05;;;;;;;10.17;7.00;;;8.40;51.80;;;;;;5014068;28;20560;-46
2021/04/28 00:52:31;;;;;;;7.37;5.73;;;8.20;51.70;;;;;;5031662;28;20472;-46
2021/04/28 00:54:59;;;;;;;10.30;6.90;;;8.30;51.70;;;;;;5014061;28;20461;-44
2021/04/28 00:57:25;;;;;;;8.30;5.83;;;8.20;51.80;;;;;;5014395;28;20549;-45
2021/04/28 00:59:52;;;;;;;8.10;5.57;;;8.20;51.80;;;;;;5014603;28;20493;-45
2021/04/28 01:02:18;;;;;;;8.07;5.50;;;8.30;52.00;;;;;;5031911;28;20571;-45
2021/04/28 01:04:45;;;;;;;8.30;6.27;;;8.10;51.90;;;;;;5031852;28;20848;-46
2021/04/28 01:07:13;;;;;;;10.10;5.90;;;8.10;51.90;;;;;;5014249;28;20536;-45
2021/04/28 01:09:41;;;;;;;8.70;6.10;;;8.10;51.90;;;;;;5014221;28;20513;-45
2021/04/28 01:12:09;;;;;;;8.83;6.37;;;8.10;51.90;;;;;;5032001;28;20478;-45
2021/04/28 01:14:35;;;;;;;10.20;7.10;;;8.20;52.20;;;;;;5013792;28;20804;-45
2021/04/28 01:17:06;;;;;;;9.43;6.17;;;8.20;52.30;;;;;;5014414;28;20891;-46
2021/04/28 01:19:37;;;;;;;7.50;6.27;;;8.00;52.20;;;;;;5031639;28;20445;-45
2021/04/28 01:22:04;;;;;;;7.40;5.80;;;8.00;52.20;;;;;;5017496;28;20457;-44
2021/04/28 01:24:33;;;;;;;11.13;6.70;;;8.20;52.50;;;;;;5017792;28;20448;-45
2021/04/28 01:27:05;;;;;;;11.60;6.30;;;8.10;52.60;;;;;;5035904;28;20735;-45
2021/04/28 01:29:34;;;;;;;13.90;7.20;;;8.20;52.80;;;;;;5035964;28;20452;-45
2021/04/28 01:32:02;;;;;;;7.87;6.67;;;8.00;52.70;;;;;;5019893;28;20861;-45
2021/04/28 01:34:29;;;;;;;11.00;6.33;;;8.00;52.70;;;;;;5017833;28;20515;-46
2021/04/28 01:36:56;;;;;;;10.80;6.70;;;7.90;52.70;;;;;;5017971;28;20961;-46
2021/04/28 01:39:23;;;;;;;8.03;6.00;;;7.90;52.70;;;;;;5018607;28;21091;-46
2021/04/28 01:41:51;;;;;;;7.87;6.33;;;7.90;52.60;;;;;;5018747;28;20460;-46
2021/04/28 01:44:20;;;;;;;8.03;6.60;;;7.90;52.80;;;;;;5035966;28;20455;-45
2021/04/28 01:46:47;;;;;;;9.77;6.47;;;7.80;52.80;;;;;;5035924;28;20433;-46
2021/04/28 01:49:16;;;;;;;11.10;7.53;;;7.80;53.00;;;;;;5018506;28;20529;-45
2021/04/28 01:51:44;;;;;;;9.30;6.43;;;7.80;53.20;;;;;;5017869;28;21034;-46
2021/04/28 01:54:15;;;;;;;8.57;7.00;;;7.80;53.10;;;;;;5035401;28;20457;-45
2021/04/28 01:56:43;;;;;;;11.53;6.37;;;7.60;53.20;;;;;;5017516;28;20449;-45
2021/04/28 01:59:30;;;;;;;9.40;6.73;;;7.60;53.30;;;;;;5035250;28;20514;-45
2021/04/28 02:02:04;;;;;;;11.17;7.10;;;7.10;52.80;;;;;;5035250;28;20434;-45
2021/04/28 02:04:36;;;;;;;12.33;7.10;;;7.70;53.30;;;;;;5016941;28;20981;-45
2021/04/28 02:07:03;;;;;;;8.23;7.10;;;7.90;53.70;;;;;;5016983;28;20448;-45
2021/04/28 02:09:30;;;;;;;12.00;7.67;;;7.80;53.80;;;;;;5034633;28;20779;-44
2021/04/28 02:11:56;;;;;;;9.00;6.53;;;7.40;53.60;;;;;;5034700;28;20480;-45
2021/04/28 02:14:27;;;;;;;8.57;7.17;;;7.70;54.00;;;;;;5016566;28;20535;-45
2021/04/28 02:17:05;;;;;;;10.60;7.27;;;7.50;53.90;;;;;;5016734;28;20948;-45
2021/04/28 02:19:37;;;;;;;12.80;7.53;;;7.60;54.10;;;;;;5033423;28;20985;-45
2021/04/28 02:22:04;;;;;;;8.63;7.33;;;7.50;54.30;;;;;;5016107;28;20440;-44
2021/04/28 02:24:42;;;;;;;9.23;7.43;;;7.60;54.50;;;;;;5016782;28;20968;-45
2021/04/28 02:27:09;;;;;;;9.67;6.90;;;7.40;54.40;;;;;;5034422;28;20432;-45
2021/04/28 02:29:36;;;;;;;8.73;7.37;;;7.10;54.40;;;;;;5034491;28;20476;-45
2021/04/28 02:32:03;;;;;;;13.40;8.23;;;7.00;54.60;;;;;;5034662;28;20487;-45
2021/04/28 02:34:49;;;;;;;9.60;7.40;;;7.40;54.90;;;;;;5037349;28;20520;-46
2021/04/28 02:37:24;;;;;;;11.57;7.57;;;6.60;54.50;;;;;;5019658;28;20534;-46
2021/04/28 02:40:11;;;;;;;11.13;7.30;;;7.00;54.90;;;;;;5036272;28;20869;-46
2021/04/28 02:42:39;;;;;;;8.93;6.67;;;7.20;54.90;;;;;;5016508;28;20448;-46
2021/04/28 02:45:08;;;;;;;11.57;8.00;;;7.30;55.30;;;;;;5034571;28;20443;-44
2021/04/28 02:47:35;;;;;;;10.17;7.80;;;7.30;55.40;;;;;;5034615;28;20460;-44
2021/04/28 02:50:05;;;;;;;14.37;7.10;;;7.20;55.20;;;;;;5016314;28;20476;-45
2021/04/28 02:53:01;;;;;;;12.77;7.97;;;7.20;55.40;;;;;;5015797;28;21024;-45
2021/04/28 02:55:28;;;;;;;10.07;7.50;;;7.20;55.70;;;;;;5015882;28;20444;-46
2021/04/28 02:57:59;;;;;;;11.50;8.70;;;6.90;55.50;;;;;;5015998;28;21100;-46
2021/04/28 03:00:27;;;;;;;11.27;7.90;;;6.90;55.60;;;;;;5015738;28;20447;-46
2021/04/28 03:02:57;;;;;;;16.40;8.90;;;6.90;55.70;;;;;;5015516;28;20449;-46
2021/04/28 03:05:26;;;;;;;11.10;7.97;;;6.70;55.90;;;;;;5016044;28;20454;-46
2021/04/28 03:08:23;;;;;;;11.13;8.20;;;7.10;56.30;;;;;;5016065;28;21030;-46
2021/04/28 03:10:50;;;;;;;12.20;7.30;;;6.80;55.90;;;;;;5033542;28;20441;-46
2021/04/28 03:13:17;;;;;;;13.10;7.83;;;6.60;55.60;;;;;;5015368;28;20806;-45
2021/04/28 03:15:45;;;;;;;11.20;8.27;;;6.70;56.20;;;;;;5015954;28;20455;-45
2021/04/28 03:18:12;;;;;;;8.87;8.00;;;6.30;56.00;;;;;;5033421;28;20490;-45
2021/04/28 03:20:42;;;;;;;11.93;8.77;;;6.60;56.50;;;;;;5015762;28;20452;-44
2021/04/28 03:23:12;;;;;;;9.27;8.23;;;7.10;56.60;;;;;;5033021;28;20988;-46
2021/04/28 03:25:38;;;;;;;13.40;8.40;;;6.90;56.80;;;;;;5033234;28;20431;-46
2021/04/28 03:28:07;;;;;;;15.10;8.50;;;6.90;56.90;;;;;;5015188;28;20456;-45
2021/04/28 03:30:36;;;;;;;12.43;7.97;;;6.70;56.70;;;;;;5015295;28;20755;-44
2021/04/28 03:33:02;;;;;;;8.40;7.40;;;6.80;57.00;;;;;;5032634;28;20562;-45
2021/04/28 03:35:57;;;;;;;11.03;8.33;;;6.50;56.90;;;;;;5015211;28;20478;-44
2021/04/28 03:38:34;;;;;;;12.97;8.43;;;6.80;57.20;;;;;;5015039;28;20482;-46
2021/04/28 03:41:03;;;;;;;11.87;7.97;;;6.90;57.30;;;;;;5032981;28;20443;-45
2021/04/28 03:43:29;;;;;;;7.80;6.70;;;6.70;57.30;;;;;;5014275;28;20470;-45
2021/04/28 03:45:56;;;;;;;12.80;7.77;;;6.60;57.40;;;;;;5017429;28;20457;-46
2021/04/28 03:48:35;;;;;;;17.03;8.63;;;6.90;57.80;;;;;;5017976;28;21057;-45
2021/04/28 03:51:02;;;;;;;10.77;8.20;;;6.80;57.80;;;;;;5016263;28;20538;-45
2021/04/28 03:53:29;;;;;;;12.13;8.47;;;6.80;57.70;;;;;;5014924;28;20455;-45
2021/04/28 03:55:58;;;;;;;8.77;7.60;;;6.50;57.30;;;;;;5014828;28;20495;-45
2021/04/28 03:58:24;;;;;;;16.53;8.13;;;6.90;57.90;;;;;;5032413;28;20543;-46
2021/04/28 04:01:00;;;;;;;13.60;9.90;;;6.80;57.80;;;;;;5014923;28;20886;-46
2021/04/28 04:03:32;;;;;;;12.30;9.97;;;6.50;57.50;;;;;;5014498;28;20451;-46
2021/04/28 04:06:18;;;;;;;13.50;9.70;;;6.60;57.80;;;;;;5032684;28;20426;-46
2021/04/28 04:09:07;;;;;;;10.80;9.35;;;6.50;57.60;;;;;;5032252;28;20475;-46
2021/04/28 04:11:35;;;;;;;12.33;8.93;;;6.60;57.50;;;;;;5014542;28;20222;-46
2021/04/28 04:14:02;;;;;;;12.53;10.17;;;6.90;58.00;;;;;;5014306;28;20445;-46
2021/04/28 04:16:29;;;;;;;14.20;9.10;;;6.50;57.90;;;;;;5014721;28;20455;-46
2021/04/28 04:18:55;;;;;;;13.50;9.40;;;6.60;58.10;;;;;;5032316;28;20231;-46
2021/04/28 04:21:23;;;;;;;15.10;10.17;;;6.60;58.20;;;;;;5014688;28;20478;-46
2021/04/28 04:24:06;;;;;;;13.83;9.70;;;6.70;58.20;;;;;;5014578;28;20457;-45
2021/04/28 04:26:58;;;;;;;14.30;8.80;;;6.70;58.10;;;;;;5031956;28;20462;-45
2021/04/28 04:29:44;;;;;;;13.47;8.50;;;6.40;58.10;;;;;;5031884;28;20976;-46
2021/04/28 04:32:29;;;;;;;13.70;8.57;;;6.60;57.70;;;;;;5031681;28;20546;-46
2021/04/28 04:35:30;;;;;;;13.87;10.20;;;6.60;58.70;;;;;;5031627;28;20447;-46
2021/04/28 04:38:16;;;;;;;16.80;10.23;;;6.70;58.10;;;;;;5056465;22;20799;-49
2021/04/28 04:40:57;;;;;;;16.27;10.63;;;6.20;57.60;;;;;;4997289;28;20813;-49
2021/04/28 04:43:35;;;;;;;14.30;10.80;;;6.80;58.20;;;;;;4997383;28;20464;-49
2021/04/28 04:46:17;;;;;;;13.50;10.00;;;6.60;58.10;;;;;;5013995;28;20445;-48
2021/04/28 04:48:43;;;;;;;15.10;9.97;;;7.00;58.40;;;;;;5009941;28;20552;-50
2021/04/28 04:51:09;;;;;;;17.50;10.47;;;6.90;58.80;;;;;;5009883;28;20469;-49
2021/04/28 04:53:36;;;;;;;14.07;9.93;;;6.40;57.70;;;;;;5010231;28;20477;-49
2021/04/28 04:56:03;;;;;;;17.93;11.00;;;7.20;58.60;;;;;;5009340;28;20539;-49
2021/04/28 04:58:30;;;;;;;15.20;9.60;;;7.00;58.50;;;;;;5010160;28;20448;-49
2021/04/28 05:00:56;;;;;;;14.60;10.30;;;7.00;58.50;;;;;;4992266;28;20536;-49
2021/04/28 05:03:22;;;;;;;14.30;9.70;;;7.20;58.50;;;;;;5009834;28;20489;-49
2021/04/28 05:05:48;;;;;;;17.80;11.20;;;7.50;58.40;;;;;;5009595;28;20545;-50
2021/04/28 05:08:15;;;;;;;16.60;10.63;;;7.20;58.30;;;;;;5010410;28;20455;-49
2021/04/28 05:10:42;;;;;;;21.10;10.80;;;7.50;58.20;;;;;;5010361;28;20829;-49
2021/04/28 05:13:08;;;;;;;14.27;10.50;;;7.50;58.00;;;;;;5009598;28;21022;-49
2021/04/28 05:15:35;;;;;;;16.00;12.03;;;7.60;57.80;;;;;;5007898;28;20835;-48
2021/04/28 05:18:01;;;;;;;18.70;11.43;;;7.80;57.70;;;;;;5009380;28;20444;-49
2021/04/28 05:20:27;;;;;;;13.17;10.67;;;7.90;57.60;;;;;;5007556;28;20798;-49
2021/04/28 05:22:53;;;;;;;13.83;10.17;;;7.60;57.20;;;;;;5007710;28;20969;-49
2021/04/28 05:25:47;;;;;;;15.07;10.03;;;8.00;56.80;;;;;;5007926;28;20565;-49
2021/04/28 05:28:13;;;;;;;15.10;11.00;;;8.30;57.00;;;;;;5009559;28;20818;-49
2021/04/28 05:30:39;;;;;;;18.80;10.83;;;8.30;56.90;;;;;;5009695;28;20975;-49
2021/04/28 05:33:06;;;;;;;17.37;11.30;;;8.10;56.60;;;;;;5009429;28;20555;-49
2021/04/28 05:35:33;;;;;;;13.97;9.90;;;8.40;56.30;;;;;;5009186;28;20949;-48
2021/04/28 05:37:59;;;;;;;14.37;10.67;;;8.30;56.20;;;;;;5009635;28;20838;-50
2021/04/28 05:40:26;;;;;;;13.73;10.53;;;8.60;56.30;;;;;;5009371;28;20462;-48
2021/04/28 05:42:53;;;;;;;14.60;10.80;;;8.60;55.70;;;;;;5008366;28;20453;-48
2021/04/28 05:45:19;;;;;;;19.57;11.10;;;8.80;55.90;;;;;;5009421;28;20434;-49
2021/04/28 05:47:45;;;;;;;16.93;10.07;;;8.70;55.60;;;;;;5009452;28;20431;-49
2021/04/28 05:50:15;;;;;;;22.17;10.60;;;8.90;55.10;;;;;;5009462;28;20557;-50
2021/04/28 05:52:42;;;;;;;19.20;10.87;;;9.00;55.00;;;;;;5008123;28;20510;-49
2021/04/28 05:55:09;;;;;;;16.53;10.77;;;9.10;55.30;;;;;;5009067;28;20923;-49
2021/04/28 05:57:37;;;;;;;12.27;10.87;;;9.20;55.10;;;;;;5008957;28;20431;-49
2021/04/28 06:00:06;;;;;;;13.53;9.80;;;9.20;54.90;;;;;;5009065;28;20974;-49
2021/04/28 06:02:38;;;;;;;18.50;10.03;;;8.90;54.70;;;;;;5008666;28;20825;-49
2021/04/28 06:05:06;;;;;;;20.37;11.40;;;9.30;54.60;;;;;;5009311;28;20470;-50
2021/04/28 06:07:32;;;;;;;16.87;11.70;;;9.00;54.30;;;;;;5011859;28;20463;-50
2021/04/28 06:09:59;;;;;;;16.90;10.63;;;9.10;54.70;;;;;;5012718;28;20427;-50
2021/04/28 06:12:25;;;;;;;16.13;10.70;;;9.40;54.50;;;;;;5012283;28;20797;-50
2021/04/28 06:14:51;;;;;;;15.80;10.50;;;9.30;54.60;;;;;;5012927;28;20433;-49
2021/04/28 06:17:18;;;;;;;15.67;10.83;;;9.00;53.90;;;;;;5012636;28;20821;-50
2021/04/28 06:19:44;;;;;;;14.27;10.43;;;9.40;54.50;;;;;;5012127;28;20491;-48
2021/04/28 06:22:11;;;;;;;15.33;11.77;;;9.50;54.40;;;;;;5012250;28;20435;-48
2021/04/28 06:24:37;;;;;;;19.60;11.63;;;9.60;54.20;;;;;;5010141;28;20455;-49
2021/04/28 06:27:06;;;;;;;20.07;12.77;;;9.50;54.30;;;;;;5012357;28;20407;-48
2021/04/28 06:29:32;;;;;;;17.70;11.33;;;9.60;54.10;;;;;;5012154;28;20460;-48
2021/04/28 06:31:58;;;;;;;14.10;11.40;;;9.60;54.60;;;;;;5012235;28;20563;-49
2021/04/28 06:34:26;;;;;;;16.93;11.57;;;10.20;53.20;;;;;;5010445;28;20539;-48
2021/04/28 06:36:52;;;;;;;17.03;11.70;;;9.80;53.70;;;;;;5012197;28;20793;-48
2021/04/28 06:39:18;;;;;;;28.43;11.67;;;9.70;53.40;;;;;;5012097;28;20567;-48
2021/04/28 06:41:45;;;;;;;16.70;11.00;;;9.70;53.60;;;;;;5011974;28;20436;-50
2021/04/28 06:44:11;;;;;;;16.50;12.40;;;10.00;52.80;;;;;;5011914;28;20496;-49
2021/04/28 06:46:37;;;;;;;20.30;11.30;;;9.60;53.10;;;;;;5010160;28;20468;-49
2021/04/28 06:49:04;;;;;;;22.00;12.40;;;10.20;52.80;;;;;;5011888;28;20448;-50
2021/04/28 06:51:31;;;;;;;18.63;12.63;;;10.00;52.30;;;;;;5012297;28;20436;-49
2021/04/28 06:54:00;;;;;;;18.20;12.10;;;10.10;52.60;;;;;;5011876;28;20734;-50
2021/04/28 06:56:26;;;;;;;18.17;12.13;;;10.40;52.70;;;;;;5011758;28;20878;-49
2021/04/28 06:58:53;;;;;;;22.70;11.90;;;10.30;52.70;;;;;;5011574;28;20453;-49
2021/04/28 07:01:20;;;;;;;21.80;11.80;;;10.10;52.30;;;;;;5011780;28;20437;-50
2021/04/28 07:03:46;;;;;;;20.20;10.83;;;10.20;52.60;;;;;;5011460;28;20439;-48
2021/04/28 07:06:12;;;;;;;17.67;11.70;;;10.20;52.40;;;;;;5012183;28;20436;-50
2021/04/28 07:08:40;;;;;;;16.00;12.20;;;10.20;52.30;;;;;;5011472;28;20456;-49
2021/04/28 07:11:06;;;;;;;16.50;11.00;;;10.30;52.20;;;;;;5011917;28;20505;-50
2021/04/28 07:13:33;;;;;;;15.47;11.57;;;10.60;52.50;;;;;;5011009;28;20499;-49
2021/04/28 07:15:59;;;;;;;23.23;12.97;;;10.10;52.00;;;;;;5011236;28;20440;-49
2021/04/28 07:18:26;;;;;;;18.33;12.50;;;10.60;51.80;;;;;;5010148;28;20836;-48
2021/04/28 07:20:52;;;;;;;17.23;12.50;;;10.50;51.70;;;;;;5012309;28;20977;-49
2021/04/28 07:23:18;;;;;;;15.50;11.23;;;10.50;51.90;;;;;;5010890;28;20918;-50
2021/04/28 07:25:46;;;;;;;14.87;11.57;;;10.60;51.90;;;;;;5011277;28;20436;-49
2021/04/28 07:28:12;;;;;;;22.13;12.53;;;10.60;51.80;;;;;;5010495;28;20440;-49
2021/04/28 07:30:38;;;;;;;17.53;11.70;;;10.60;51.50;;;;;;5009358;28;20452;-48
2021/04/28 07:33:05;;;;;;;21.30;12.23;;;10.50;51.10;;;;;;5011213;28;20476;-48
2021/04/28 07:35:32;;;;;;;15.57;12.17;;;10.30;51.30;;;;;;5008975;28;20820;-49
2021/04/28 07:37:58;;;;;;;16.70;11.70;;;10.70;51.20;;;;;;5011157;28;20437;-49
2021/04/28 07:40:25;;;;;;;16.93;11.27;;;10.80;51.40;;;;;;5011514;28;20474;-51
2021/04/28 07:42:52;;;;;;;16.00;12.20;;;11.00;51.60;;;;;;5010740;28;20432;-51
2021/04/28 07:45:20;;;;;;;19.30;11.93;;;10.80;51.10;;;;;;5011385;28;20428;-50
2021/04/28 07:47:46;;;;;;;17.20;12.97;;;10.80;51.30;;;;;;5011605;28;20451;-51
2021/04/28 07:50:14;;;;;;;14.50;11.20;;;11.00;51.10;;;;;;5009864;28;20543;-50
2021/04/28 07:52:41;;;;;;;21.43;12.27;;;11.00;50.80;;;;;;5010335;28;20476;-49
2021/04/28 07:55:09;;;;;;;16.73;10.10;;;11.10;50.90;;;;;;5010535;28;20478;-51
2021/04/28 07:57:35;;;;;;;18.97;13.77;;;11.20;50.70;;;;;;5011033;28;20440;-49
2021/04/28 08:00:06;;;;;;;18.07;12.80;;;11.40;50.80;;;;;;5009501;28;20547;-50
2021/04/28 08:02:39;;;;;;;14.70;11.80;;;11.20;50.60;;;;;;5011042;28;20427;-50
2021/04/28 08:05:07;;;;;;;14.40;11.40;;;11.20;50.20;;;;;;5011303;28;20778;-50
2021/04/28 08:07:34;;;;;;;18.40;11.83;;;11.20;50.40;;;;;;5011209;28;20437;-50
2021/04/28 08:10:01;;;;;;;19.90;11.70;;;11.60;50.70;;;;;;5010419;28;20894;-50
2021/04/28 08:12:27;;;;;;;23.73;14.20;;;11.50;50.30;;;;;;5010238;28;20476;-48
2021/04/28 08:14:54;;;;;;;12.90;11.53;;;11.60;50.30;;;;;;5010982;28;20531;-50
2021/04/28 08:17:21;;;;;;;19.07;12.30;;;11.90;50.40;;;;;;5010624;28;20463;-50
2021/04/28 08:19:47;;;;;;;19.33;13.53;;;11.90;50.60;;;;;;5010470;28;20499;-49
2021/04/28 08:22:14;;;;;;;14.97;11.30;;;12.00;50.40;;;;;;5009822;28;20489;-50
2021/04/28 08:24:40;;;;;;;17.43;13.40;;;12.40;50.50;;;;;;5010417;28;20433;-50
2021/04/28 08:27:07;;;;;;;19.40;11.80;;;12.30;50.50;;;;;;5010831;28;20436;-51
2021/04/28 08:29:33;;;;;;;20.17;13.77;;;12.20;50.10;;;;;;5010415;28;20452;-50
2021/04/28 08:31:59;;;;;;;24.57;13.60;;;12.10;49.70;;;;;;5009878;28;20514;-50
2021/04/28 08:34:27;;;;;;;16.80;12.07;;;12.10;49.70;;;;;;4992172;28;20456;-50
2021/04/28 08:36:54;;;;;;;17.73;12.60;;;12.40;50.00;;;;;;5009310;28;20480;-50
2021/04/28 08:39:21;;;;;;;18.40;12.90;;;12.20;50.70;;;;;;5010444;28;20477;-51
2021/04/28 08:41:48;;;;;;;18.57;13.10;;;12.00;50.20;;;;;;5010327;28;20454;-50
2021/04/28 08:44:15;;;;;;;18.73;12.50;;;12.10;50.20;;;;;;5009947;28;20511;-51
2021/04/28 08:46:43;;;;;;;20.53;12.87;;;12.00;50.10;;;;;;5010282;28;20441;-50
2021/04/28 08:49:10;;;;;;;19.40;12.47;;;12.20;50.00;;;;;;5010224;28;20446;-51
2021/04/28 08:51:38;;;;;;;15.80;11.63;;;12.00;50.20;;;;;;5010536;28;20472;-49
2021/04/28 08:54:05;;;;;;;17.20;12.47;;;12.20;50.40;;;;;;5009990;28;20488;-50
2021/04/28 08:56:32;;;;;;;17.70;11.93;;;12.20;50.00;;;;;;5008867;28;20559;-49
2021/04/28 08:59:03;;;;;;;18.57;13.10;;;12.40;50.30;;;;;;5010104;28;20514;-50
2021/04/28 09:01:31;;;;;;;14.80;11.03;;;12.40;50.20;;;;;;5010372;28;20541;-50
2021/04/28 09:03:58;;;;;;;19.00;12.60;;;12.20;49.70;;;;;;5010131;28;20439;-51
2021/04/28 09:06:31;;;;;;;19.00;11.40;;;12.10;49.40;;;;;;5010294;28;20468;-51
2021/04/28 09:09:04;;;;;;;16.80;11.93;;;12.20;49.80;;;;;;5010003;28;20457;-49
2021/04/28 09:11:36;;;;;;;17.93;12.10;;;12.20;49.60;;;;;;5009548;28;20572;-49
2021/04/28 09:14:14;;;;;;;17.40;12.20;;;12.40;49.40;;;;;;5009936;28;20433;-49
2021/04/28 09:16:42;;;;;;;16.93;11.53;;;12.00;49.40;;;;;;5010093;28;20451;-49
2021/04/28 09:19:28;;;;;;;19.60;13.10;;;12.30;49.90;;;;;;5008595;28;20981;-49
2021/04/28 09:22:15;;;;;;;13.83;11.70;;;12.30;49.10;;;;;;5009984;28;20488;-49
2021/04/28 09:25:01;;;;;;;18.33;12.90;;;12.30;49.30;;;;;;5010157;28;20432;-49
2021/04/28 09:28:21;;;;;;;17.53;12.53;;;12.20;49.10;;;;;;4968668;28;20949;-50
2021/04/28 09:31:11;;;;;;;14.80;12.00;;;12.30;49.70;;;;;;4951803;28;20593;-50
2021/04/28 09:33:52;;;;;;;18.03;11.73;;;12.00;49.40;;;;;;4981420;28;20496;-50
2021/04/28 09:36:33;;;;;;;26.27;13.30;;;12.20;49.70;;;;;;5009616;28;20879;-50
2021/04/28 09:39:06;;;;;;;16.67;12.07;;;12.70;50.20;;;;;;5009200;28;20471;-51
2021/04/28 09:41:43;;;;;;;16.20;12.90;;;12.70;50.10;;;;;;5010479;28;20471;-51
2021/04/28 09:44:33;;;;;;;16.63;12.60;;;12.70;49.80;;;;;;5013354;28;20534;-50
2021/04/28 09:47:12;;;;;;;24.40;12.57;;;12.90;50.30;;;;;;5013304;28;20497;-51
2021/04/28 09:49:50;;;;;;;19.73;13.33;;;12.70;49.70;;;;;;5012927;28;20458;-51
2021/04/28 09:52:22;;;;;;;20.23;13.93;;;13.10;50.50;;;;;;5012861;28;20790;-49
2021/04/28 09:54:50;;;;;;;19.10;13.27;;;13.10;50.40;;;;;;5012779;28;20505;-50
2021/04/28 09:57:18;;;;;;;18.30;13.30;;;12.90;50.00;;;;;;5012817;28;20478;-50
2021/04/28 09:59:48;;;;;;;22.80;12.97;;;13.10;49.90;;;;;;5013115;28;20466;-50
2021/04/28 10:02:24;;;;;;;17.67;13.33;;;13.00;50.20;;;;;;5013202;28;20521;-49
2021/04/28 10:04:50;;;;;;;21.80;14.73;;;13.10;50.10;;;;;;5013483;28;20757;-50
2021/04/28 10:07:24;;;;;;;16.33;13.00;;;13.20;50.30;;;;;;5013103;28;20542;-50
2021/04/28 10:09:50;;;;;;;21.00;14.47;;;13.50;50.20;;;;;;5015501;28;20503;-49
2021/04/28 10:12:20;;;;;;;15.93;12.93;;;13.20;49.80;;;;;;5012900;28;20475;-48
2021/04/28 10:14:47;;;;;;;17.47;13.03;;;13.10;49.70;;;;;;5011379;28;20472;-51
2021/04/28 10:17:16;;;;;;;17.87;13.27;;;13.10;49.80;;;;;;5012664;28;20436;-51
2021/04/28 10:19:43;;;;;;;19.63;14.20;;;13.30;49.30;;;;;;5013008;28;20932;-50
2021/04/28 10:22:13;;;;;;;18.33;13.47;;;13.40;49.50;;;;;;5012390;28;20457;-49
2021/04/28 10:24:40;;;;;;;19.83;14.23;;;13.50;49.20;;;;;;5012046;28;20509;-49
2021/04/28 10:27:10;;;;;;;18.87;13.73;;;13.60;48.80;;;;;;5012772;28;20825;-50
2021/04/28 10:29:39;;;;;;;18.10;13.53;;;13.10;48.50;;;;;;5011085;28;21062;-50
2021/04/28 10:32:08;;;;;;;21.80;14.13;;;13.70;48.90;;;;;;5012301;28;20479;-50
2021/04/28 10:34:41;;;;;;;21.90;14.63;;;13.90;49.10;;;;;;5012475;28;20852;-50
2021/04/28 10:37:07;;;;;;;15.77;12.13;;;13.80;48.90;;;;;;5011987;28;20876;-50
2021/04/28 10:39:34;;;;;;;16.60;12.23;;;13.80;48.50;;;;;;5043807;22;20500;-48
2021/04/28 10:42:02;;;;;;;23.67;13.40;;;13.90;47.90;;;;;;5015873;28;20463;-47
2021/04/28 10:44:45;;;;;;;15.97;12.77;;;14.50;48.40;;;;;;5033502;28;20488;-47
2021/04/28 10:47:33;;;;;;;22.83;13.27;;;14.10;48.00;;;;;;5034185;28;20430;-47
2021/04/28 10:50:09;;;;;;;18.13;12.70;;;14.10;48.00;;;;;;5033390;28;20463;-47
2021/04/28 10:52:36;;;;;;;15.60;13.63;;;14.10;47.80;;;;;;5015439;28;20533;-48
2021/04/28 10:55:04;;;;;;;18.00;12.60;;;14.30;47.80;;;;;;5033999;28;20434;-48
2021/04/28 10:57:36;;;;;;;17.30;12.53;;;14.50;47.50;;;;;;5033843;28;20793;-47
2021/04/28 11:00:26;;;;;;;16.93;12.13;;;14.40;47.70;;;;;;5033284;28;21720;-46
2021/04/28 11:02:55;;;;;;;15.87;12.50;;;14.20;47.40;;;;;;5042191;28;20432;-48
2021/04/28 11:05:26;;;;;;;16.87;12.80;;;14.30;47.10;;;;;;5042899;28;20446;-48
2021/04/28 11:07:55;;;;;;;15.27;12.27;;;14.30;47.40;;;;;;5036960;28;20443;-47
2021/04/28 11:10:28;;;;;;;19.27;13.90;;;14.20;46.90;;;;;;5046890;28;20874;-48
2021/04/28 11:13:06;;;;;;;17.43;12.00;;;14.60;47.50;;;;;;5033023;28;20469;-48
2021/04/28 11:15:47;;;;;;;16.20;11.43;;;14.30;47.10;;;;;;5033177;28;20441;-48
2021/04/28 11:18:33;;;;;;;19.67;12.80;;;14.50;46.90;;;;;;5043008;28;20438;-48
2021/04/28 11:21:25;;;;;;;15.13;11.70;;;14.60;46.80;;;;;;5035559;28;20822;-48
2021/04/28 11:24:09;;;;;;;16.67;11.57;;;14.60;46.80;;;;;;5046019;28;20500;-47
2021/04/28 11:26:37;;;;;;;20.50;12.33;;;14.60;46.70;;;;;;5033246;28;20423;-48
2021/04/28 11:29:04;;;;;;;17.47;11.83;;;14.90;46.80;;;;;;5033198;28;20954;-48
2021/04/28 11:31:42;;;;;;;20.77;12.40;;;15.10;46.50;;;;;;5033171;28;20485;-48
2021/04/28 11:34:33;;;;;;;15.17;11.03;;;15.00;46.60;;;;;;5032945;28;20446;-48
2021/04/28 11:37:01;;;;;;;16.53;11.20;;;14.80;46.10;;;;;;5048565;28;20455;-47
2021/04/28 11:39:35;;;;;;;16.43;10.73;;;14.90;46.10;;;;;;5052338;28;20553;-47
2021/04/28 11:42:07;;;;;;;14.10;10.57;;;14.30;45.60;;;;;;5037217;28;20474;-48
2021/04/28 11:44:33;;;;;;;15.10;10.90;;;14.90;46.00;;;;;;5033259;28;20428;-48
2021/04/28 11:47:08;;;;;;;13.40;10.13;;;14.90;45.70;;;;;;5033575;28;20528;-47
2021/04/28 11:49:38;;;;;;;15.90;10.93;;;15.00;46.10;;;;;;5032997;28;20440;-47
2021/04/28 11:52:05;;;;;;;14.03;11.20;;;15.10;46.40;;;;;;5033252;28;20479;-45
2021/04/28 11:54:32;;;;;;;14.77;11.20;;;15.20;46.30;;;;;;5033006;28;20432;-46
2021/04/28 11:56:58;;;;;;;15.07;11.50;;;15.20;46.40;;;;;;5032375;28;20438;-46
2021/04/28 11:59:26;;;;;;;13.23;11.00;;;14.70;45.50;;;;;;5033052;28;20448;-46
2021/04/28 12:01:56;;;;;;;16.17;11.40;;;15.10;45.80;;;;;;5032870;28;20854;-45
2021/04/28 12:04:28;;;;;;;14.90;11.17;;;15.40;46.10;;;;;;5032490;28;20434;-46
2021/04/28 12:06:55;;;;;;;16.83;12.90;;;15.40;45.80;;;;;;5016640;28;20481;-46
2021/04/28 12:09:38;;;;;;;17.60;11.77;;;15.60;45.90;;;;;;5032662;28;20455;-48
2021/04/28 12:12:17;;;;;;;12.23;10.03;;;15.70;45.70;;;;;;5033227;28;20438;-47
2021/04/28 12:14:45;;;;;;;11.83;10.43;;;15.70;45.60;;;;;;5032515;28;20538;-46
2021/04/28 12:17:12;;;;;;;14.90;11.47;;;15.60;45.50;;;;;;5032808;28;20471;-47
2021/04/28 12:19:39;;;;;;;11.43;10.23;;;15.60;45.30;;;;;;5032672;28;20471;-46
2021/04/28 12:22:08;;;;;;;15.00;10.87;;;15.40;44.70;;;;;;5032182;28;20478;-48
2021/04/28 12:24:36;;;;;;;13.80;10.77;;;15.50;45.20;;;;;;5032291;28;20450;-47
2021/04/28 12:27:15;;;;;;;16.20;9.33;;;15.90;45.60;;;;;;5032400;28;20438;-46
2021/04/28 12:29:43;;;;;;;13.70;11.50;;;15.60;45.10;;;;;;5032563;28;20546;-46
2021/04/28 12:32:10;;;;;;;16.43;10.20;;;15.60;44.90;;;;;;5032322;28;20475;-46
2021/04/28 12:34:39;;;;;;;11.10;9.17;;;15.60;45.20;;;;;;5032428;28;20463;-46
2021/04/28 12:37:13;;;;;;;13.63;10.40;;;15.60;45.10;;;;;;5031996;28;20427;-45
2021/04/28 12:39:39;;;;;;;14.07;9.50;;;15.80;45.00;;;;;;5031646;28;20605;-46
2021/04/28 12:42:07;;;;;;;13.43;9.40;;;15.90;44.90;;;;;;5032739;28;20431;-46
2021/04/28 12:44:36;;;;;;;15.00;10.90;;;15.90;44.90;;;;;;5033371;28;20424;-45
2021/04/28 12:47:03;;;;;;;11.30;9.30;;;15.80;45.00;;;;;;5033667;28;20495;-46
2021/04/28 12:49:30;;;;;;;11.83;9.60;;;15.90;44.90;;;;;;5035484;28;20448;-46
2021/04/28 12:52:00;;;;;;;10.03;9.03;;;16.10;45.00;;;;;;5033610;28;20557;-47
2021/04/28 12:54:28;;;;;;;15.93;10.50;;;16.30;45.10;;;;;;5034277;28;20431;-49